sensor_id;sensor_type;location;lat;lon;timestamp;pressure;altitude;pressure_sealevel;temperature;humidity
8101;BME280;4093;53.470;9.832;2024-01-11T00:01:31;103318.84;;;0.51;83.80
8101;BME280;4093;53.470;9.832;2024-01-11T00:03:59;103326.47;;;0.64;83.36
8101;BME280;4093;53.470;9.832;2024-01-11T00:06:28;103320.31;;;0.74;83.64
8101;BME280;4093;53.470;9.832;2024-01-11T00:08:56;103311.13;;;0.76;83.26
8101;BME280;4093;53.470;9.832;2024-01-11T00:11:24;103291.84;;;0.66;83.37
8101;BME280;4093;53.470;9.832;2024-01-11T00:13:51;103303.38;;;0.75;83.87
8101;BME280;4093;53.470;9.832;2024-01-11T00:16:19;103296.06;;;0.79;82.88
8101;BME280;4093;53.470;9.832;2024-01-11T00:18:47;103286.06;;;0.69;82.96
8101;BME280;4093;53.470;9.832;2024-01-11T00:21:15;103281.94;;;0.84;82.83
8101;BME280;4093;53.470;9.832;2024-01-11T00:23:44;103289.47;;;0.96;82.83
8101;BME280;4093;53.470;9.832;2024-01-11T00:26:12;103271.25;;;0.90;82.16
8101;BME280;4093;53.470;9.832;2024-01-11T00:28:40;103257.94;;;0.81;82.33
8101;BME280;4093;53.470;9.832;2024-01-11T00:31:07;103247.75;;;0.81;82.79
8101;BME280;4093;53.470;9.832;2024-01-11T00:33:35;103221.53;;;0.68;82.65
8101;BME280;4093;53.470;9.832;2024-01-11T00:36:04;103224.19;;;0.70;83.25
8101;BME280;4093;53.470;9.832;2024-01-11T00:38:31;103204.97;;;0.62;82.42
8101;BME280;4093;53.470;9.832;2024-01-11T00:41:01;103227.00;;;0.61;83.65
8101;BME280;4093;53.470;9.832;2024-01-11T00:43:28;103242.84;;;0.84;82.76
8101;BME280;4093;53.470;9.832;2024-01-11T00:45:56;103226.03;;;0.86;82.48
8101;BME280;4093;53.470;9.832;2024-01-11T00:48:24;103214.16;;;0.86;82.53
8101;BME280;4093;53.470;9.832;2024-01-11T00:50:52;103195.09;;;0.80;81.64
8101;BME280;4093;53.470;9.832;2024-01-11T00:53:20;103212.59;;;0.88;82.79
8101;BME280;4093;53.470;9.832;2024-01-11T00:55:48;103223.44;;;0.99;81.81
8101;BME280;4093;53.470;9.832;2024-01-11T00:58:17;103220.22;;;1.02;81.51
8101;BME280;4093;53.470;9.832;2024-01-11T01:00:45;103211.72;;;0.88;82.17
8101;BME280;4093;53.470;9.832;2024-01-11T01:03:12;103219.03;;;0.97;81.81
8101;BME280;4093;53.470;9.832;2024-01-11T01:05:42;103215.56;;;1.09;81.99
8101;BME280;4093;53.470;9.832;2024-01-11T01:08:10;103195.97;;;0.80;82.43
8101;BME280;4093;53.470;9.832;2024-01-11T01:10:38;103189.38;;;0.84;82.58
8101;BME280;4093;53.470;9.832;2024-01-11T01:13:06;103183.41;;;0.83;82.05
8101;BME280;4093;53.470;9.832;2024-01-11T01:15:35;103181.38;;;0.78;82.87
8101;BME280;4093;53.470;9.832;2024-01-11T01:18:03;103181.47;;;0.79;83.03
8101;BME280;4093;53.470;9.832;2024-01-11T01:20:34;103170.31;;;0.77;82.88
8101;BME280;4093;53.470;9.832;2024-01-11T01:23:02;103168.25;;;0.72;83.65
8101;BME280;4093;53.470;9.832;2024-01-11T01:25:30;103164.97;;;0.33;85.42
8101;BME280;4093;53.470;9.832;2024-01-11T01:27:59;103196.06;;;0.68;84.74
8101;BME280;4093;53.470;9.832;2024-01-11T01:30:27;103195.88;;;0.65;84.49
8101;BME280;4093;53.470;9.832;2024-01-11T01:32:56;103195.50;;;0.73;84.65
8101;BME280;4093;53.470;9.832;2024-01-11T01:35:24;103169.34;;;0.62;84.89
8101;BME280;4093;53.470;9.832;2024-01-11T01:37:52;103176.72;;;0.44;86.27
8101;BME280;4093;53.470;9.832;2024-01-11T01:40:20;103170.94;;;0.33;86.18
8101;BME280;4093;53.470;9.832;2024-01-11T01:42:48;103172.78;;;0.49;86.21
8101;BME280;4093;53.470;9.832;2024-01-11T01:45:16;103191.94;;;0.84;84.90
8101;BME280;4093;53.470;9.832;2024-01-11T01:47:44;103184.22;;;0.82;83.56
8101;BME280;4093;53.470;9.832;2024-01-11T01:50:13;103190.59;;;0.62;84.23
8101;BME280;4093;53.470;9.832;2024-01-11T01:52:42;103212.53;;;0.74;84.42
8101;BME280;4093;53.470;9.832;2024-01-11T01:55:12;103196.19;;;0.70;84.03
8101;BME280;4093;53.470;9.832;2024-01-11T01:57:42;103184.91;;;0.80;83.92
8101;BME280;4093;53.470;9.832;2024-01-11T02:00:11;103168.47;;;0.61;84.18
8101;BME280;4093;53.470;9.832;2024-01-11T02:02:42;103167.09;;;0.53;84.64
8101;BME280;4093;53.470;9.832;2024-01-11T02:05:14;103175.88;;;0.72;84.01
8101;BME280;4093;53.470;9.832;2024-01-11T02:07:43;103160.16;;;0.64;83.60
8101;BME280;4093;53.470;9.832;2024-01-11T02:10:12;103163.19;;;0.58;83.88
8101;BME280;4093;53.470;9.832;2024-01-11T02:12:40;103188.91;;;0.76;83.87
8101;BME280;4093;53.470;9.832;2024-01-11T02:15:09;103186.31;;;0.35;84.99
8101;BME280;4093;53.470;9.832;2024-01-11T02:17:39;103214.38;;;0.50;85.13
8101;BME280;4093;53.470;9.832;2024-01-11T02:20:09;103229.88;;;0.66;84.35
8101;BME280;4093;53.470;9.832;2024-01-11T02:22:40;103245.78;;;0.90;83.26
8101;BME280;4093;53.470;9.832;2024-01-11T02:25:10;103250.38;;;1.09;83.49
8101;BME280;4093;53.470;9.832;2024-01-11T02:27:47;103227.44;;;1.09;82.56
8101;BME280;4093;53.470;9.832;2024-01-11T02:30:15;103210.94;;;0.89;82.79
8101;BME280;4093;53.470;9.832;2024-01-11T02:32:44;103215.44;;;0.93;82.97
8101;BME280;4093;53.470;9.832;2024-01-11T02:35:14;103192.56;;;0.66;83.81
8101;BME280;4093;53.470;9.832;2024-01-11T02:37:43;103208.56;;;0.92;83.59
8101;BME280;4093;53.470;9.832;2024-01-11T02:40:13;103220.75;;;0.83;83.57
8101;BME280;4093;53.470;9.832;2024-01-11T02:42:41;103202.13;;;0.71;84.50
8101;BME280;4093;53.470;9.832;2024-01-11T02:45:10;103199.97;;;0.77;83.84
8101;BME280;4093;53.470;9.832;2024-01-11T02:47:38;103215.16;;;0.88;83.63
8101;BME280;4093;53.470;9.832;2024-01-11T02:50:07;103215.13;;;1.02;83.92
8101;BME280;4093;53.470;9.832;2024-01-11T02:52:35;103215.63;;;0.96;84.21
8101;BME280;4093;53.470;9.832;2024-01-11T02:55:03;103218.53;;;1.02;84.21
8101;BME280;4093;53.470;9.832;2024-01-11T02:57:32;103229.94;;;0.94;84.21
8101;BME280;4093;53.470;9.832;2024-01-11T03:00:00;103218.66;;;1.04;83.42
8101;BME280;4093;53.470;9.832;2024-01-11T03:02:28;103196.84;;;0.81;84.19
8101;BME280;4093;53.470;9.832;2024-01-11T03:04:55;103190.66;;;0.90;84.73
8101;BME280;4093;53.470;9.832;2024-01-11T03:07:23;103194.31;;;1.09;83.43
8101;BME280;4093;53.470;9.832;2024-01-11T03:09:51;103183.38;;;0.97;83.07
8101;BME280;4093;53.470;9.832;2024-01-11T03:12:19;103204.75;;;0.99;83.79
8101;BME280;4093;53.470;9.832;2024-01-11T03:14:49;103205.19;;;1.06;83.80
8101;BME280;4093;53.470;9.832;2024-01-11T03:17:16;103196.41;;;1.01;83.53
8101;BME280;4093;53.470;9.832;2024-01-11T03:19:44;103200.22;;;1.08;83.92
8101;BME280;4093;53.470;9.832;2024-01-11T03:22:12;103214.19;;;1.14;83.44
8101;BME280;4093;53.470;9.832;2024-01-11T03:24:40;103198.81;;;0.85;84.57
8101;BME280;4093;53.470;9.832;2024-01-11T03:27:08;103218.22;;;1.11;83.81
8101;BME280;4093;53.470;9.832;2024-01-11T03:29:35;103213.31;;;1.14;83.80
8101;BME280;4093;53.470;9.832;2024-01-11T03:32:05;103203.44;;;1.05;84.48
8101;BME280;4093;53.470;9.832;2024-01-11T03:34:33;103204.44;;;1.07;84.04
8101;BME280;4093;53.470;9.832;2024-01-11T03:37:01;103219.06;;;1.25;84.32
8101;BME280;4093;53.470;9.832;2024-01-11T03:39:28;103213.22;;;1.12;83.43
8101;BME280;4093;53.470;9.832;2024-01-11T03:41:56;103212.22;;;1.24;83.51
8101;BME280;4093;53.470;9.832;2024-01-11T03:44:24;103217.88;;;1.33;83.80
8101;BME280;4093;53.470;9.832;2024-01-11T03:46:51;103218.13;;;1.23;83.82
8101;BME280;4093;53.470;9.832;2024-01-11T03:49:20;103208.50;;;1.19;83.74
8101;BME280;4093;53.470;9.832;2024-01-11T03:51:48;103220.31;;;1.31;83.95
8101;BME280;4093;53.470;9.832;2024-01-11T03:54:15;103223.41;;;1.26;84.63
8101;BME280;4093;53.470;9.832;2024-01-11T03:56:43;103241.78;;;1.35;84.12
8101;BME280;4093;53.470;9.832;2024-01-11T03:59:11;103230.84;;;1.23;83.67
8101;BME280;4093;53.470;9.832;2024-01-11T04:01:40;103231.00;;;1.39;83.40
8101;BME280;4093;53.470;9.832;2024-01-11T04:04:08;103210.97;;;1.17;83.61
8101;BME280;4093;53.470;9.832;2024-01-11T04:06:37;103231.88;;;1.39;83.61
8101;BME280;4093;53.470;9.832;2024-01-11T04:09:05;103229.25;;;1.25;84.79
8101;BME280;4093;53.470;9.832;2024-01-11T04:11:33;103222.84;;;1.45;84.53
8101;BME280;4093;53.470;9.832;2024-01-11T04:14:00;103206.19;;;1.36;83.96
8101;BME280;4093;53.470;9.832;2024-01-11T04:16:28;103195.13;;;1.36;84.87
8101;BME280;4093;53.470;9.832;2024-01-11T04:18:56;103195.13;;;1.36;85.05
8101;BME280;4093;53.470;9.832;2024-01-11T04:21:25;103178.97;;;1.50;84.13
8101;BME280;4093;53.470;9.832;2024-01-11T04:23:56;103136.59;;;1.23;85.20
8101;BME280;4093;53.470;9.832;2024-01-11T04:26:24;103165.09;;;1.45;84.91
8101;BME280;4093;53.470;9.832;2024-01-11T04:28:52;103167.38;;;1.55;84.89
8101;BME280;4093;53.470;9.832;2024-01-11T04:31:25;103157.00;;;1.52;84.94
8101;BME280;4093;53.470;9.832;2024-01-11T04:33:53;103150.50;;;1.43;85.07
8101;BME280;4093;53.470;9.832;2024-01-11T04:36:21;103158.75;;;1.53;84.04
8101;BME280;4093;53.470;9.832;2024-01-11T04:38:49;103138.38;;;1.53;85.29
8101;BME280;4093;53.470;9.832;2024-01-11T04:41:18;103139.78;;;1.48;84.72
8101;BME280;4093;53.470;9.832;2024-01-11T04:43:45;103147.69;;;1.38;85.13
8101;BME280;4093;53.470;9.832;2024-01-11T04:46:14;103141.72;;;1.52;84.60
8101;BME280;4093;53.470;9.832;2024-01-11T04:48:43;103124.13;;;1.42;84.69
8101;BME280;4093;53.470;9.832;2024-01-11T04:51:12;103109.31;;;1.22;85.35
8101;BME280;4093;53.470;9.832;2024-01-11T04:53:40;103139.44;;;1.42;86.35
8101;BME280;4093;53.470;9.832;2024-01-11T04:56:10;103124.31;;;1.45;85.47
8101;BME280;4093;53.470;9.832;2024-01-11T04:58:41;103131.81;;;1.57;84.64
8101;BME280;4093;53.470;9.832;2024-01-11T05:01:11;103115.00;;;1.60;85.05
8101;BME280;4093;53.470;9.832;2024-01-11T05:03:40;103099.38;;;1.54;85.05
8101;BME280;4093;53.470;9.832;2024-01-11T05:06:07;103065.34;;;1.39;85.60
8101;BME280;4093;53.470;9.832;2024-01-11T05:08:35;103082.19;;;1.37;86.85
8101;BME280;4093;53.470;9.832;2024-01-11T05:11:04;103119.06;;;1.57;86.63
8101;BME280;4093;53.470;9.832;2024-01-11T05:13:31;103131.63;;;1.54;85.74
8101;BME280;4093;53.470;9.832;2024-01-11T05:16:00;103158.88;;;1.70;85.42
8101;BME280;4093;53.470;9.832;2024-01-11T05:18:28;103162.38;;;1.72;85.10
8101;BME280;4093;53.470;9.832;2024-01-11T05:21:00;103164.94;;;1.87;85.27
8101;BME280;4093;53.470;9.832;2024-01-11T05:23:28;103151.59;;;1.76;84.93
8101;BME280;4093;53.470;9.832;2024-01-11T05:25:56;103149.72;;;1.58;85.77
8101;BME280;4093;53.470;9.832;2024-01-11T05:28:23;103160.00;;;1.75;85.80
8101;BME280;4093;53.470;9.832;2024-01-11T05:30:51;103153.19;;;1.89;84.68
8101;BME280;4093;53.470;9.832;2024-01-11T05:33:20;103156.84;;;1.94;85.20
8101;BME280;4093;53.470;9.832;2024-01-11T05:35:48;103164.78;;;1.98;84.69
8101;BME280;4093;53.470;9.832;2024-01-11T05:38:16;103165.47;;;1.96;85.04
8101;BME280;4093;53.470;9.832;2024-01-11T05:40:43;103167.75;;;1.91;85.33
8101;BME280;4093;53.470;9.832;2024-01-11T05:43:11;103180.50;;;2.06;85.75
8101;BME280;4093;53.470;9.832;2024-01-11T05:45:39;103182.38;;;2.08;84.81
8101;BME280;4093;53.470;9.832;2024-01-11T05:48:15;103183.88;;;2.20;84.96
8101;BME280;4093;53.470;9.832;2024-01-11T05:50:45;103182.00;;;2.17;84.89
8101;BME280;4093;53.470;9.832;2024-01-11T05:53:13;103146.22;;;1.86;85.06
8101;BME280;4093;53.470;9.832;2024-01-11T05:55:40;103169.78;;;2.12;84.49
8101;BME280;4093;53.470;9.832;2024-01-11T05:58:08;103147.09;;;2.01;84.13
8101;BME280;4093;53.470;9.832;2024-01-11T06:00:36;103142.69;;;1.99;84.48
8101;BME280;4093;53.470;9.832;2024-01-11T06:03:04;103144.09;;;2.08;85.30
8101;BME280;4093;53.470;9.832;2024-01-11T06:05:32;103129.06;;;1.98;85.62
8101;BME280;4093;53.470;9.832;2024-01-11T06:08:01;103118.88;;;1.83;85.95
8101;BME280;4093;53.470;9.832;2024-01-11T06:10:29;103143.28;;;2.09;86.06
8101;BME280;4093;53.470;9.832;2024-01-11T06:12:57;103148.22;;;2.06;86.23
8101;BME280;4093;53.470;9.832;2024-01-11T06:15:25;103150.53;;;2.17;85.56
8101;BME280;4093;53.470;9.832;2024-01-11T06:17:52;103143.56;;;2.14;85.81
8101;BME280;4093;53.470;9.832;2024-01-11T06:20:20;103130.97;;;2.17;85.23
8101;BME280;4093;53.470;9.832;2024-01-11T06:22:48;103131.69;;;2.15;85.80
8101;BME280;4093;53.470;9.832;2024-01-11T06:25:17;103138.78;;;2.35;85.16
8101;BME280;4093;53.470;9.832;2024-01-11T06:27:46;103128.66;;;2.22;85.75
8101;BME280;4093;53.470;9.832;2024-01-11T06:30:14;103140.00;;;2.42;85.62
8101;BME280;4093;53.470;9.832;2024-01-11T06:32:42;103128.47;;;2.34;85.63
8101;BME280;4093;53.470;9.832;2024-01-11T06:35:10;103119.94;;;2.33;85.41
8101;BME280;4093;53.470;9.832;2024-01-11T06:37:38;103111.25;;;2.29;85.64
8101;BME280;4093;53.470;9.832;2024-01-11T06:40:07;103113.69;;;2.28;85.87
8101;BME280;4093;53.470;9.832;2024-01-11T06:42:36;103124.75;;;2.43;85.82
8101;BME280;4093;53.470;9.832;2024-01-11T06:45:05;103126.50;;;2.44;86.46
8101;BME280;4093;53.470;9.832;2024-01-11T06:47:33;103138.53;;;2.62;85.89
8101;BME280;4093;53.470;9.832;2024-01-11T06:50:01;103129.59;;;2.70;85.57
8101;BME280;4093;53.470;9.832;2024-01-11T06:52:29;103123.84;;;2.58;85.95
8101;BME280;4093;53.470;9.832;2024-01-11T06:54:57;103115.47;;;2.60;85.77
8101;BME280;4093;53.470;9.832;2024-01-11T06:57:24;103125.41;;;2.55;85.51
8101;BME280;4093;53.470;9.832;2024-01-11T06:59:53;103141.94;;;2.62;85.52
8101;BME280;4093;53.470;9.832;2024-01-11T07:02:21;103144.59;;;2.33;87.35
8101;BME280;4093;53.470;9.832;2024-01-11T07:04:49;103149.44;;;2.28;88.25
8101;BME280;4093;53.470;9.832;2024-01-11T07:07:17;103162.22;;;2.59;87.29
8101;BME280;4093;53.470;9.832;2024-01-11T07:09:44;103155.41;;;2.60;86.01
8101;BME280;4093;53.470;9.832;2024-01-11T07:12:12;103161.91;;;2.69;86.71
8101;BME280;4093;53.470;9.832;2024-01-11T07:14:40;103156.56;;;2.65;86.10
8101;BME280;4093;53.470;9.832;2024-01-11T07:17:09;103145.84;;;2.55;85.69
8101;BME280;4093;53.470;9.832;2024-01-11T07:19:36;103140.25;;;2.46;86.70
8101;BME280;4093;53.470;9.832;2024-01-11T07:22:04;103161.84;;;2.68;86.89
8101;BME280;4093;53.470;9.832;2024-01-11T07:24:32;103168.00;;;2.71;86.62
8101;BME280;4093;53.470;9.832;2024-01-11T07:27:04;103157.44;;;2.65;85.57
8101;BME280;4093;53.470;9.832;2024-01-11T07:29:32;103155.88;;;2.52;86.60
8101;BME280;4093;53.470;9.832;2024-01-11T07:32:00;103149.22;;;2.40;86.22
8101;BME280;4093;53.470;9.832;2024-01-11T07:34:32;103178.53;;;2.77;86.07
8101;BME280;4093;53.470;9.832;2024-01-11T07:37:01;103167.13;;;2.87;85.87
8101;BME280;4093;53.470;9.832;2024-01-11T07:39:28;103167.94;;;2.86;85.91
8101;BME280;4093;53.470;9.832;2024-01-11T07:41:57;103150.59;;;2.64;85.68
8101;BME280;4093;53.470;9.832;2024-01-11T07:44:25;103151.94;;;2.58;85.29
8101;BME280;4093;53.470;9.832;2024-01-11T07:46:52;103156.06;;;2.55;86.44
8101;BME280;4093;53.470;9.832;2024-01-11T07:49:24;103162.53;;;2.65;85.94
8101;BME280;4093;53.470;9.832;2024-01-11T07:51:54;103164.63;;;2.72;86.76
8101;BME280;4093;53.470;9.832;2024-01-11T07:54:21;103169.19;;;2.78;86.05
8101;BME280;4093;53.470;9.832;2024-01-11T07:56:49;103149.38;;;2.58;86.54
8101;BME280;4093;53.470;9.832;2024-01-11T07:59:17;103160.34;;;2.57;86.87
8101;BME280;4093;53.470;9.832;2024-01-11T08:01:44;103181.91;;;2.76;86.41
8101;BME280;4093;53.470;9.832;2024-01-11T08:04:12;103191.31;;;2.77;85.85
8101;BME280;4093;53.470;9.832;2024-01-11T08:06:40;103189.13;;;2.69;86.38
8101;BME280;4093;53.470;9.832;2024-01-11T08:09:09;103189.75;;;2.65;86.09
8101;BME280;4093;53.470;9.832;2024-01-11T08:11:37;103198.28;;;2.65;86.04
8101;BME280;4093;53.470;9.832;2024-01-11T08:14:11;103209.34;;;2.81;86.75
8101;BME280;4093;53.470;9.832;2024-01-11T08:16:39;103186.13;;;2.76;87.07
8101;BME280;4093;53.470;9.832;2024-01-11T08:19:06;103185.06;;;2.72;86.69
8101;BME280;4093;53.470;9.832;2024-01-11T08:21:36;103181.97;;;2.78;86.50
8101;BME280;4093;53.470;9.832;2024-01-11T08:24:04;103173.97;;;2.72;87.28
8101;BME280;4093;53.470;9.832;2024-01-11T08:26:34;103169.84;;;2.74;87.29
8101;BME280;4093;53.470;9.832;2024-01-11T08:29:02;103186.31;;;2.95;87.57
8101;BME280;4093;53.470;9.832;2024-01-11T08:31:31;103170.41;;;2.85;86.97
8101;BME280;4093;53.470;9.832;2024-01-11T08:34:00;103167.78;;;2.83;87.57
8101;BME280;4093;53.470;9.832;2024-01-11T08:36:31;103154.91;;;2.82;87.00
8101;BME280;4093;53.470;9.832;2024-01-11T08:39:01;103158.38;;;2.82;86.76
8101;BME280;4093;53.470;9.832;2024-01-11T08:41:30;103155.06;;;2.85;87.94
8101;BME280;4093;53.470;9.832;2024-01-11T08:43:59;103145.88;;;2.88;87.28
8101;BME280;4093;53.470;9.832;2024-01-11T08:46:27;103144.63;;;2.96;87.01
8101;BME280;4093;53.470;9.832;2024-01-11T08:48:57;103163.50;;;2.98;87.14
8101;BME280;4093;53.470;9.832;2024-01-11T08:51:25;103161.16;;;3.03;86.34
8101;BME280;4093;53.470;9.832;2024-01-11T08:53:53;103145.59;;;2.98;87.01
8101;BME280;4093;53.470;9.832;2024-01-11T08:56:21;103163.22;;;3.10;86.43
8101;BME280;4093;53.470;9.832;2024-01-11T08:58:49;103146.22;;;2.94;87.30
8101;BME280;4093;53.470;9.832;2024-01-11T09:01:18;103143.81;;;2.97;86.91
8101;BME280;4093;53.470;9.832;2024-01-11T09:03:46;103141.59;;;3.04;86.75
8101;BME280;4093;53.470;9.832;2024-01-11T09:06:14;103146.31;;;3.12;86.56
8101;BME280;4093;53.470;9.832;2024-01-11T09:08:42;103150.16;;;3.20;86.97
8101;BME280;4093;53.470;9.832;2024-01-11T09:11:10;103125.06;;;2.97;86.38
8101;BME280;4093;53.470;9.832;2024-01-11T09:13:38;103144.47;;;3.10;86.38
8101;BME280;4093;53.470;9.832;2024-01-11T09:16:07;103146.25;;;3.27;86.95
8101;BME280;4093;53.470;9.832;2024-01-11T09:18:37;103122.44;;;2.95;87.93
8101;BME280;4093;53.470;9.832;2024-01-11T09:21:07;103140.16;;;3.09;86.62
8101;BME280;4093;53.470;9.832;2024-01-11T09:23:35;103142.38;;;3.19;85.62
8101;BME280;4093;53.470;9.832;2024-01-11T09:26:03;103140.00;;;3.22;86.05
8101;BME280;4093;53.470;9.832;2024-01-11T09:28:31;103144.31;;;3.23;85.84
8101;BME280;4093;53.470;9.832;2024-01-11T09:30:59;103115.88;;;3.00;86.42
8101;BME280;4093;53.470;9.832;2024-01-11T09:33:28;103133.94;;;3.20;86.44
8101;BME280;4093;53.470;9.832;2024-01-11T09:35:57;103121.63;;;2.80;87.72
8101;BME280;4093;53.470;9.832;2024-01-11T09:38:25;103139.69;;;3.16;86.07
8101;BME280;4093;53.470;9.832;2024-01-11T09:41:00;103151.84;;;3.20;87.30
8101;BME280;4093;53.470;9.832;2024-01-11T09:43:38;103143.19;;;3.18;86.46
8101;BME280;4093;53.470;9.832;2024-01-11T09:46:10;103114.53;;;3.23;85.30
8101;BME280;4093;53.470;9.832;2024-01-11T09:48:40;103139.19;;;3.39;85.54
8101;BME280;4093;53.470;9.832;2024-01-11T09:51:12;103130.81;;;3.42;85.48
8101;BME280;4093;53.470;9.832;2024-01-11T09:53:40;103122.09;;;3.22;84.97
8101;BME280;4093;53.470;9.832;2024-01-11T09:56:09;103100.00;;;2.90;87.14
8101;BME280;4093;53.470;9.832;2024-01-11T09:58:40;103135.69;;;3.21;86.40
8101;BME280;4093;53.470;9.832;2024-01-11T10:01:11;103126.56;;;3.42;85.99
8101;BME280;4093;53.470;9.832;2024-01-11T10:03:39;103115.88;;;3.33;86.10
8101;BME280;4093;53.470;9.832;2024-01-11T10:06:08;103124.47;;;3.35;85.90
8101;BME280;4093;53.470;9.832;2024-01-11T10:08:38;103111.41;;;3.29;86.31
8101;BME280;4093;53.470;9.832;2024-01-11T10:11:06;103109.28;;;3.38;86.23
8101;BME280;4093;53.470;9.832;2024-01-11T10:13:34;103109.81;;;3.15;87.67
8101;BME280;4093;53.470;9.832;2024-01-11T10:16:07;103078.84;;;3.09;87.47
8101;BME280;4093;53.470;9.832;2024-01-11T10:18:36;103104.34;;;3.41;87.20
8101;BME280;4093;53.470;9.832;2024-01-11T10:21:04;103122.84;;;3.54;86.15
8101;BME280;4093;53.470;9.832;2024-01-11T10:23:33;103124.84;;;3.59;85.38
8101;BME280;4093;53.470;9.832;2024-01-11T10:26:03;103113.28;;;3.50;85.88
8101;BME280;4093;53.470;9.832;2024-01-11T10:28:30;103117.56;;;3.67;86.06
8101;BME280;4093;53.470;9.832;2024-01-11T10:30:58;103101.56;;;3.71;85.87
8101;BME280;4093;53.470;9.832;2024-01-11T10:33:26;103104.94;;;3.70;86.24
8101;BME280;4093;53.470;9.832;2024-01-11T10:35:54;103082.44;;;3.46;86.50
8101;BME280;4093;53.470;9.832;2024-01-11T10:38:22;103078.72;;;3.40;87.17
8101;BME280;4093;53.470;9.832;2024-01-11T10:40:53;103082.91;;;3.56;86.72
8101;BME280;4093;53.470;9.832;2024-01-11T10:43:24;103113.06;;;3.79;86.99
8101;BME280;4093;53.470;9.832;2024-01-11T10:45:52;103114.81;;;3.80;86.70
8101;BME280;4093;53.470;9.832;2024-01-11T10:48:21;103104.84;;;3.68;86.74
8101;BME280;4093;53.470;9.832;2024-01-11T10:50:54;103099.34;;;3.61;86.96
8101;BME280;4093;53.470;9.832;2024-01-11T10:53:39;103118.97;;;4.32;89.92
8101;BME280;4093;53.470;9.832;2024-01-11T10:56:09;103105.22;;;4.30;86.17
8101;BME280;4093;53.470;9.832;2024-01-11T10:58:41;103103.41;;;4.09;86.07
8101;BME280;4093;53.470;9.832;2024-01-11T11:01:10;103125.22;;;4.01;87.73
8101;BME280;4093;53.470;9.832;2024-01-11T11:03:40;103138.81;;;4.18;86.86
8101;BME280;4093;53.470;9.832;2024-01-11T11:06:10;103150.78;;;4.19;85.83
8101;BME280;4093;53.470;9.832;2024-01-11T11:08:40;103158.84;;;4.27;86.29
8101;BME280;4093;53.470;9.832;2024-01-11T11:11:09;103163.94;;;4.45;85.29
8101;BME280;4093;53.470;9.832;2024-01-11T11:13:37;103147.94;;;4.31;84.68
8101;BME280;4093;53.470;9.832;2024-01-11T11:16:07;103124.59;;;4.07;85.07
8101;BME280;4093;53.470;9.832;2024-01-11T11:18:35;103124.41;;;4.20;85.67
8101;BME280;4093;53.470;9.832;2024-01-11T11:21:08;103129.38;;;4.17;85.64
8101;BME280;4093;53.470;9.832;2024-01-11T11:23:37;103139.44;;;4.32;85.35
8101;BME280;4093;53.470;9.832;2024-01-11T11:26:06;103130.97;;;4.15;85.74
8101;BME280;4093;53.470;9.832;2024-01-11T11:28:35;103130.47;;;4.22;86.26
8101;BME280;4093;53.470;9.832;2024-01-11T11:31:03;103129.28;;;4.33;86.08
8101;BME280;4093;53.470;9.832;2024-01-11T11:33:32;103120.88;;;4.36;85.66
8101;BME280;4093;53.470;9.832;2024-01-11T11:36:02;103090.84;;;4.14;86.21
8101;BME280;4093;53.470;9.832;2024-01-11T11:38:31;103109.44;;;4.29;87.00
8101;BME280;4093;53.470;9.832;2024-01-11T11:41:01;103108.81;;;4.33;85.82
8101;BME280;4093;53.470;9.832;2024-01-11T11:43:29;103109.97;;;4.40;85.07
8101;BME280;4093;53.470;9.832;2024-01-11T11:45:57;103094.38;;;4.35;85.29
8101;BME280;4093;53.470;9.832;2024-01-11T11:48:49;103079.34;;;4.24;86.38
8101;BME280;4093;53.470;9.832;2024-01-11T11:51:19;103084.34;;;4.40;85.42
8101;BME280;4093;53.470;9.832;2024-01-11T11:53:51;103090.78;;;4.50;85.00
8101;BME280;4093;53.470;9.832;2024-01-11T11:56:20;103081.56;;;4.35;85.51
8101;BME280;4093;53.470;9.832;2024-01-11T11:58:49;103092.09;;;4.41;85.82
8101;BME280;4093;53.470;9.832;2024-01-11T12:01:18;103092.53;;;4.51;85.41
8101;BME280;4093;53.470;9.832;2024-01-11T12:03:48;103080.63;;;4.33;85.33
8101;BME280;4093;53.470;9.832;2024-01-11T12:06:20;103083.03;;;4.48;84.98
8101;BME280;4093;53.470;9.832;2024-01-11T12:08:52;103085.22;;;4.40;85.89
8101;BME280;4093;53.470;9.832;2024-01-11T12:11:24;103079.53;;;4.28;86.38
8101;BME280;4093;53.470;9.832;2024-01-11T12:13:53;103073.09;;;4.36;85.69
8101;BME280;4093;53.470;9.832;2024-01-11T12:16:23;103069.03;;;4.41;86.11
8101;BME280;4093;53.470;9.832;2024-01-11T12:18:52;103072.16;;;4.54;85.34
8101;BME280;4093;53.470;9.832;2024-01-11T12:21:21;103066.75;;;4.48;85.34
8101;BME280;4093;53.470;9.832;2024-01-11T12:23:49;103070.56;;;4.56;87.28
8101;BME280;4093;53.470;9.832;2024-01-11T12:26:16;103062.41;;;4.64;85.75
8101;BME280;4093;53.470;9.832;2024-01-11T12:28:49;103054.31;;;4.55;86.10
8101;BME280;4093;53.470;9.832;2024-01-11T12:31:17;103063.97;;;4.61;85.69
8101;BME280;4093;53.470;9.832;2024-01-11T12:33:46;103054.00;;;4.67;85.46
8101;BME280;4093;53.470;9.832;2024-01-11T12:36:16;103053.19;;;4.68;85.83
8101;BME280;4093;53.470;9.832;2024-01-11T12:38:46;103052.97;;;4.63;84.92
8101;BME280;4093;53.470;9.832;2024-01-11T12:41:20;103047.84;;;4.63;85.72
8101;BME280;4093;53.470;9.832;2024-01-11T12:43:48;103037.59;;;4.63;85.24
8101;BME280;4093;53.470;9.832;2024-01-11T12:46:16;103042.66;;;4.43;87.30
8101;BME280;4093;53.470;9.832;2024-01-11T12:48:44;103048.59;;;4.61;86.36
8101;BME280;4093;53.470;9.832;2024-01-11T12:51:12;103047.50;;;4.75;85.83
8101;BME280;4093;53.470;9.832;2024-01-11T12:53:48;103040.22;;;4.65;86.23
8101;BME280;4093;53.470;9.832;2024-01-11T12:56:17;103048.59;;;4.80;86.15
8101;BME280;4093;53.470;9.832;2024-01-11T12:58:47;103055.59;;;4.84;85.69
8101;BME280;4093;53.470;9.832;2024-01-11T13:01:15;103038.34;;;4.61;86.71
8101;BME280;4093;53.470;9.832;2024-01-11T13:03:44;103033.41;;;4.46;87.70
8101;BME280;4093;53.470;9.832;2024-01-11T13:06:14;103019.59;;;4.05;88.81
8101;BME280;4093;53.470;9.832;2024-01-11T13:08:43;103045.84;;;4.38;88.09
8101;BME280;4093;53.470;9.832;2024-01-11T13:11:13;103058.56;;;4.74;87.29
8101;BME280;4093;53.470;9.832;2024-01-11T13:13:43;103039.75;;;4.74;86.66
8101;BME280;4093;53.470;9.832;2024-01-11T13:16:13;103021.47;;;4.27;88.69
8101;BME280;4093;53.470;9.832;2024-01-11T13:18:42;103034.38;;;4.68;87.90
8101;BME280;4093;53.470;9.832;2024-01-11T13:21:09;103023.72;;;4.78;87.65
8101;BME280;4093;53.470;9.832;2024-01-11T13:23:39;103030.28;;;5.12;86.98
8101;BME280;4093;53.470;9.832;2024-01-11T13:26:07;103027.72;;;5.12;86.41
8101;BME280;4093;53.470;9.832;2024-01-11T13:28:36;103030.72;;;5.22;86.24
8101;BME280;4093;53.470;9.832;2024-01-11T13:31:04;103023.19;;;5.06;86.34